Time;durP1;ratioP1;P1;durP2;ratioP2;P2;SDS_P1;SDS_P2;PMS_P1;PMS_P2;Temp;Humidity;BMP_temperature;BMP_pressure;BME280_temperature;BME280_humidity;BME280_pressure;Samples;Min_cycle;Max_cycle;Signal;HPM_P1;HPM_P2
2023/04/20 00:00:31;;;;;;;6.80;3.60;;;;;;;11.06;35.45;102550.53;5017097;28;20045;-79
2023/04/20 00:03:00;;;;;;;7.30;3.78;;;;;;;11.08;35.41;102541.06;5000225;28;20121;-80
2023/04/20 00:05:25;;;;;;;6.55;3.72;;;;;;;11.31;35.24;102539.28;5022010;28;20026;-79
2023/04/20 00:07:51;;;;;;;7.03;3.45;;;;;;;11.02;35.09;102535.59;5019386;28;20111;-78
2023/04/20 00:10:26;;;;;;;6.40;3.47;;;;;;;11.14;35.75;102533.47;5025308;28;20097;-78
2023/04/20 00:12:54;;;;;;;7.72;3.90;;;;;;;11.01;35.65;102535.53;5020172;28;20151;-79
2023/04/20 00:15:25;;;;;;;7.55;3.80;;;;;;;11.29;35.62;102531.41;5024201;28;20068;-81
2023/04/20 00:17:51;;;;;;;8.27;3.50;;;;;;;11.27;35.14;102524.38;5021279;28;20045;-80
2023/04/20 00:20:25;;;;;;;12.68;3.58;;;;;;;11.16;35.20;102517.84;5004445;28;20126;-81
2023/04/20 00:22:57;;;;;;;10.63;3.70;;;;;;;11.08;35.78;102517.56;5007282;28;20046;-78
2023/04/20 00:25:22;;;;;;;11.23;3.38;;;;;;;10.85;35.76;102521.03;5009557;28;20053;-81
2023/04/20 00:27:47;;;;;;;7.97;3.35;;;;;;;11.22;35.36;102512.88;5004994;28;20046;-81
2023/04/20 00:30:13;;;;;;;6.95;3.72;;;;;;;10.96;35.57;102518.00;4989114;28;20041;-79
2023/04/20 00:32:38;;;;;;;5.60;3.20;;;;;;;11.28;35.61;102516.56;5005334;28;20049;-81
2023/04/20 00:35:04;;;;;;;7.38;3.55;;;;;;;10.80;35.70;102518.22;5008957;28;20094;-80
2023/04/20 00:37:30;;;;;;;8.40;3.17;;;;;;;11.01;36.37;102520.78;5009496;28;20034;-78
2023/04/20 00:39:56;;;;;;;6.63;3.22;;;;;;;11.09;35.99;102513.25;5005170;28;20048;-79
2023/04/20 00:42:28;;;;;;;9.98;3.35;;;;;;;11.06;36.07;102518.31;5008596;28;20037;-80
2023/04/20 00:44:56;;;;;;;5.57;3.30;;;;;;;11.04;36.55;102509.56;5003751;28;20030;-80
2023/04/20 00:47:21;;;;;;;8.85;3.50;;;;;;;11.04;36.27;102512.19;5007549;28;20054;-80
2023/04/20 00:49:47;;;;;;;7.35;3.40;;;;;;;10.91;37.48;102509.13;5009352;28;20045;-81
2023/04/20 00:52:12;;;;;;;8.43;3.30;;;;;;;10.82;36.87;102507.84;5013329;28;20034;-79
2023/04/20 00:54:38;;;;;;;7.60;3.65;;;;;;;10.63;37.18;102503.66;5014853;28;20038;-82
2023/04/20 00:57:04;;;;;;;6.35;3.70;;;;;;;10.62;37.13;102501.84;5011253;28;20034;-82
2023/04/20 00:59:29;;;;;;;7.53;3.70;;;;;;;10.94;37.45;102500.50;5008292;28;20137;-81
2023/04/20 01:02:03;;;;;;;8.48;3.60;;;;;;;10.75;37.04;102492.78;5004403;28;20026;-80
2023/04/20 01:04:29;;;;;;;8.98;3.58;;;;;;;10.63;37.33;102489.72;5009044;28;20114;-80
2023/04/20 01:07:03;;;;;;;7.43;3.40;;;;;;;10.77;36.95;102480.72;5005618;28;20054;-81
2023/04/20 01:09:29;;;;;;;7.60;3.35;;;;;;;10.70;36.76;102479.59;4991339;28;20034;-81
2023/04/20 01:11:57;;;;;;;4.93;3.10;;;;;;;10.73;37.72;102474.50;5006264;28;20080;-81
2023/04/20 01:14:22;;;;;;;9.18;3.50;;;;;;;10.66;37.68;102476.81;4991840;28;20172;-80
2023/04/20 01:16:48;;;;;;;6.15;3.45;;;;;;;10.60;37.96;102471.34;5005621;28;20069;-79
2023/04/20 01:19:16;;;;;;;7.78;3.65;;;;;;;10.73;38.11;102471.00;5012805;28;20060;-80
2023/04/20 01:21:41;;;;;;;5.80;3.28;;;;;;;10.38;38.36;102460.06;5010142;28;20041;-78
2023/04/20 01:24:07;;;;;;;7.82;3.47;;;;;;;10.68;38.13;102449.94;5013544;28;20089;-82
2023/04/20 01:26:33;;;;;;;6.63;3.47;;;;;;;10.49;38.84;102457.91;4990170;28;20038;-83
2023/04/20 01:29:04;;;;;;;10.63;3.90;;;;;;;10.63;38.81;102453.19;4995991;28;20041;-80
2023/04/20 01:31:30;;;;;;;11.13;3.60;;;;;;;10.56;38.80;102452.97;5015673;28;20038;-80
2023/04/20 01:34:02;;;;;;;11.80;3.88;;;;;;;10.70;38.67;102443.06;4993436;28;20064;-81
2023/04/20 01:36:27;;;;;;;9.55;3.60;;;;;;;10.72;39.10;102437.91;4996032;28;20129;-79
2023/04/20 01:38:52;;;;;;;9.77;3.60;;;;;;;10.73;39.18;102434.47;5004156;28;20105;-81
2023/04/20 01:41:18;;;;;;;6.88;3.80;;;;;;;10.57;39.79;102430.38;5007777;28;20491;-81
2023/04/20 01:43:43;;;;;;;8.68;4.18;;;;;;;10.45;40.80;102424.69;5004956;28;20034;-81
2023/04/20 01:46:08;;;;;;;8.18;4.13;;;;;;;10.39;41.33;102420.13;5010478;28;20029;-81
2023/04/20 01:48:34;;;;;;;8.93;4.10;;;;;;;10.41;41.08;102426.31;5007371;28;20056;-81
2023/04/20 01:51:02;;;;;;;8.93;3.83;;;;;;;10.33;41.36;102413.81;5015786;28;20025;-81
2023/04/20 01:53:27;;;;;;;7.18;3.90;;;;;;;10.21;42.30;102414.22;5014252;28;20052;-80
2023/04/20 01:55:56;;;;;;;7.28;4.15;;;;;;;10.10;42.64;102412.88;4992188;28;20040;-80
2023/04/20 01:58:21;;;;;;;7.95;3.88;;;;;;;10.09;42.95;102408.50;4994378;28;20030;-81
2023/04/20 02:00:49;;;;;;;7.53;4.15;;;;;;;10.03;43.38;102406.53;5008231;28;20034;-81
2023/04/20 02:03:15;;;;;;;8.02;4.40;;;;;;;9.94;44.22;102407.88;5008590;28;20033;-80
2023/04/20 02:05:43;;;;;;;7.88;4.40;;;;;;;9.91;44.09;102406.03;5003495;28;20038;-81
2023/04/20 02:08:10;;;;;;;10.13;4.40;;;;;;;9.71;45.51;102401.72;5006631;28;20030;-81
2023/04/20 02:10:38;;;;;;;8.07;4.63;;;;;;;9.75;45.38;102396.72;5003494;28;20034;-81
2023/04/20 02:13:03;;;;;;;9.52;4.65;;;;;;;9.74;46.21;102396.66;4989412;28;20041;-80
2023/04/20 02:15:29;;;;;;;10.18;4.82;;;;;;;9.76;46.42;102394.97;5006415;28;20034;-81
2023/04/20 02:17:56;;;;;;;8.45;4.93;;;;;;;9.55;47.25;102391.50;5002695;28;20121;-82
2023/04/20 02:20:24;;;;;;;10.43;5.03;;;;;;;9.77;47.48;102396.75;5007462;28;20030;-81
2023/04/20 02:22:52;;;;;;;9.45;5.32;;;;;;;9.67;47.97;102386.81;5003563;28;20395;-81
2023/04/20 02:25:24;;;;;;;10.88;5.57;;;;;;;9.87;48.37;102391.13;5006539;28;20038;-81
2023/04/20 02:27:49;;;;;;;13.55;5.50;;;;;;;9.93;48.63;102385.25;5002236;28;20092;-80
2023/04/20 02:30:18;;;;;;;11.13;5.63;;;;;;;9.73;49.77;102380.13;5005860;28;20034;-79
2023/04/20 02:32:52;;;;;;;11.65;5.90;;;;;;;9.76;50.57;102377.63;5001800;28;20038;-81
2023/04/20 02:35:27;;;;;;;11.32;5.90;;;;;;;9.90;50.37;102380.81;5005836;28;20041;-80
2023/04/20 02:37:52;;;;;;;12.50;5.97;;;;;;;9.98;50.27;102379.41;5002971;28;20054;-81
2023/04/20 02:40:21;;;;;;;12.32;6.18;;;;;;;9.96;50.25;102372.34;4981377;28;20068;-79
2023/04/20 02:42:46;;;;;;;12.45;6.40;;;;;;;9.92;50.69;102375.66;5004115;28;20030;-79
2023/04/20 02:45:11;;;;;;;12.07;6.38;;;;;;;9.93;50.75;102370.53;5009453;28;20548;-81
2023/04/20 02:47:40;;;;;;;11.70;5.80;;;;;;;10.02;50.49;102368.25;5009146;28;20032;-77
2023/04/20 02:50:18;;;;;;;10.85;6.32;;;;;;;9.87;50.89;102366.78;5025744;28;20037;-78
2023/04/20 02:52:43;;;;;;;11.80;6.28;;;;;;;10.02;50.64;102364.78;5022798;28;20469;-80
2023/04/20 02:55:23;;;;;;;11.55;6.05;;;;;;;10.14;50.42;102360.03;5026257;28;20030;-79
2023/04/20 02:57:49;;;;;;;13.25;5.55;;;;;;;10.24;50.14;102349.19;5022320;28;20092;-80
2023/04/20 03:00:20;;;;;;;11.80;5.60;;;;;;;10.22;50.25;102361.25;5015695;28;20092;-80
2023/04/20 03:02:45;;;;;;;10.68;6.13;;;;;;;10.21;50.72;102356.88;5007185;28;20029;-80
2023/04/20 03:05:11;;;;;;;11.90;5.90;;;;;;;10.04;51.08;102352.69;5010976;28;20034;-81
2023/04/20 03:07:36;;;;;;;8.68;5.30;;;;;;;10.39;50.21;102341.03;5005913;28;20042;-79
2023/04/20 03:10:02;;;;;;;15.48;5.75;;;;;;;10.02;51.06;102346.53;5011476;28;20030;-81
2023/04/20 03:12:27;;;;;;;12.02;5.40;;;;;;;10.38;51.11;102341.88;5010390;28;20057;-80
2023/04/20 03:14:52;;;;;;;12.07;5.60;;;;;;;10.30;50.67;102344.22;5009865;28;20037;-80
2023/04/20 03:17:24;;;;;;;10.07;5.32;;;;;;;10.37;50.93;102334.91;5024237;28;20044;-80
2023/04/20 03:19:52;;;;;;;13.70;5.32;;;;;;;10.38;51.12;102337.53;5014606;28;20093;-81
2023/04/20 03:22:26;;;;;;;12.23;5.38;;;;;;;10.43;51.24;102333.38;5016112;28;20033;-81
2023/04/20 03:24:52;;;;;;;8.45;5.00;;;;;;;10.60;50.88;102327.91;5011536;28;20060;-82
2023/04/20 03:27:20;;;;;;;11.80;5.40;;;;;;;10.67;50.94;102329.91;5012173;28;20034;-79
2023/04/20 03:29:49;;;;;;;8.73;5.28;;;;;;;10.53;51.26;102324.19;5007776;28;20034;-81
2023/04/20 03:32:14;;;;;;;11.63;5.30;;;;;;;10.58;51.79;102320.91;4972865;28;20034;-80
2023/04/20 03:34:40;;;;;;;11.30;5.20;;;;;;;10.63;51.37;102320.19;4994712;28;20041;-80
2023/04/20 03:37:06;;;;;;;13.00;5.07;;;;;;;10.56;51.92;102325.19;4996712;28;20551;-83
2023/04/20 03:39:31;;;;;;;11.35;4.68;;;;;;;10.88;51.19;102320.22;5010935;28;20029;-80
2023/04/20 03:41:56;;;;;;;8.43;5.15;;;;;;;10.64;52.25;102321.97;5015033;28;20037;-80
2023/04/20 03:44:21;;;;;;;10.43;5.50;;;;;;;10.89;51.86;102311.56;4996957;28;20046;-79
2023/04/20 03:46:47;;;;;;;11.48;4.90;;;;;;;11.06;51.32;102310.44;5008434;28;20094;-81
2023/04/20 03:49:12;;;;;;;9.88;5.50;;;;;;;10.92;51.84;102307.34;5013801;28;20053;-81
2023/04/20 03:51:37;;;;;;;9.15;5.00;;;;;;;10.91;52.18;102309.91;5011314;28;20034;-81
2023/04/20 03:54:04;;;;;;;8.30;5.18;;;;;;;11.03;51.94;102296.41;5018634;28;20033;-80
2023/04/20 03:56:30;;;;;;;9.88;4.90;;;;;;;10.76;52.95;102296.31;5021445;28;20501;-81
2023/04/20 03:58:55;;;;;;;9.48;4.72;;;;;;;11.06;52.07;102299.09;5016245;28;20102;-81
2023/04/20 04:01:20;;;;;;;8.27;4.72;;;;;;;11.08;52.28;102289.59;4990997;28;20051;-79
2023/04/20 04:03:46;;;;;;;14.52;4.70;;;;;;;11.09;52.03;102289.66;5015346;28;20100;-80
2023/04/20 04:06:11;;;;;;;7.75;4.65;;;;;;;11.10;51.71;102291.41;4999565;28;20109;-81
2023/04/20 04:08:36;;;;;;;10.45;4.53;;;;;;;11.38;51.53;102278.47;5015985;28;20042;-80
2023/04/20 04:11:02;;;;;;;7.30;4.25;;;;;;;11.35;51.20;102269.63;5015977;28;20045;-82
2023/04/20 04:13:33;;;;;;;8.05;4.20;;;;;;;11.49;50.84;102280.53;5014200;28;20068;-81
2023/04/20 04:15:58;;;;;;;7.20;4.30;;;;;;;11.50;50.40;102280.56;5011143;28;20037;-80
2023/04/20 04:18:23;;;;;;;8.13;4.47;;;;;;;11.68;50.52;102275.03;5016015;28;20026;-79
2023/04/20 04:20:52;;;;;;;8.57;4.30;;;;;;;11.74;50.18;102265.69;4996139;28;20038;-81
2023/04/20 04:23:23;;;;;;;7.00;4.07;;;;;;;11.63;50.40;102268.78;5018203;28;20058;-80
2023/04/20 04:25:51;;;;;;;8.10;3.90;;;;;;;11.69;50.00;102268.97;5019011;28;20038;-79
2023/04/20 04:28:17;;;;;;;9.10;3.97;;;;;;;11.63;50.68;102263.56;5023392;28;20056;-81
2023/04/20 04:30:42;;;;;;;7.85;3.85;;;;;;;11.64;50.38;102261.00;5020977;28;20041;-78
2023/04/20 04:33:09;;;;;;;6.85;3.80;;;;;;;11.65;50.29;102260.16;5006982;28;20026;-79
2023/04/20 04:35:39;;;;;;;9.43;3.92;;;;;;;11.77;50.39;102257.94;5003269;28;20049;-79
2023/04/20 04:38:04;;;;;;;5.63;3.25;;;;;;;11.67;49.76;102257.59;5007174;28;20021;-79
2023/04/20 04:40:31;;;;;;;6.55;3.22;;;;;;;11.53;50.59;102254.53;5025194;28;20053;-78
2023/04/20 04:42:57;;;;;;;6.95;3.15;;;;;;;11.73;50.02;102247.31;5003276;28;20022;-79
2023/04/20 04:45:24;;;;;;;7.95;3.15;;;;;;;11.94;49.78;102241.91;5023444;28;20101;-78
2023/04/20 04:47:51;;;;;;;7.45;3.10;;;;;;;11.79;49.94;102231.88;5016833;28;20093;-81
2023/04/20 04:50:17;;;;;;;7.57;3.20;;;;;;;11.74;50.58;102234.34;5003124;28;20089;-79
2023/04/20 04:52:48;;;;;;;6.93;3.10;;;;;;;12.28;49.41;102222.81;5015296;28;20038;-78
2023/04/20 04:55:14;;;;;;;6.70;2.97;;;;;;;11.99;49.94;102222.91;5017775;28;20022;-77
2023/04/20 04:57:42;;;;;;;6.47;2.90;;;;;;;11.93;50.58;102217.50;5014793;28;20025;-81
2023/04/20 05:00:10;;;;;;;6.10;2.70;;;;;;;12.03;50.47;102221.25;5023176;28;20025;-80
2023/04/20 05:02:36;;;;;;;8.57;2.92;;;;;;;12.00;50.54;102219.44;5002575;28;20026;-80
2023/04/20 05:05:04;;;;;;;5.35;2.70;;;;;;;12.02;50.90;102219.47;5014170;28;20045;-80
2023/04/20 05:07:33;;;;;;;5.75;2.70;;;;;;;12.17;50.00;102217.31;5012594;28;20053;-79
2023/04/20 05:10:06;;;;;;;5.85;2.80;;;;;;;11.94;50.96;102211.44;5011035;28;20046;-79
2023/04/20 05:12:31;;;;;;;4.53;2.50;;;;;;;12.07;50.65;102216.16;5010974;28;20041;-81
2023/04/20 05:14:57;;;;;;;5.97;2.97;;;;;;;11.87;51.13;102205.97;5017679;28;20026;-78
2023/04/20 05:17:25;;;;;;;9.18;2.78;;;;;;;12.18;50.34;102201.66;5022718;28;20099;-78
2023/04/20 05:19:50;;;;;;;6.05;3.00;;;;;;;11.68;50.95;102194.94;5019453;28;21554;-78
2023/04/20 05:22:16;;;;;;;9.85;2.60;;;;;;;11.95;50.46;102191.41;5024888;28;20102;-81
2023/04/20 05:24:41;;;;;;;8.90;2.85;;;;;;;11.87;51.16;102191.19;5018079;28;20017;-79
2023/04/20 05:27:10;;;;;;;5.25;3.08;;;;;;;12.03;50.57;102195.09;5021085;28;20184;-80
2023/04/20 05:29:36;;;;;;;4.35;2.80;;;;;;;12.13;50.58;102186.69;5003390;28;20137;-80
2023/04/20 05:32:01;;;;;;;6.00;3.05;;;;;;;12.13;50.57;102186.69;5021896;28;20036;-80
2023/04/20 05:34:35;;;;;;;6.80;3.15;;;;;;;12.22;51.20;102199.13;5021012;28;20112;-80
2023/04/20 05:37:03;;;;;;;8.65;3.20;;;;;;;12.06;51.79;102179.53;5016411;28;20018;-79
2023/04/20 05:39:28;;;;;;;12.38;2.90;;;;;;;11.94;52.59;102173.97;5006192;28;20045;-79
2023/04/20 05:42:03;;;;;;;5.70;2.90;;;;;;;11.84;52.99;102178.00;5019147;28;20041;-78
2023/04/20 05:44:28;;;;;;;7.30;2.70;;;;;;;11.94;52.64;102169.63;5023251;28;20463;-79
2023/04/20 05:46:54;;;;;;;8.43;3.33;;;;;;;11.84;53.04;102178.00;5000768;28;20034;-81
2023/04/20 05:49:26;;;;;;;8.05;3.13;;;;;;;12.10;52.30;102170.91;5021616;28;20025;-79
2023/04/20 05:51:51;;;;;;;6.28;2.90;;;;;;;11.96;53.06;102180.97;5014669;28;20045;-80
2023/04/20 05:54:27;;;;;;;8.70;3.33;;;;;;;12.03;52.83;102180.31;5018363;28;20045;-79
2023/04/20 05:56:53;;;;;;;7.00;3.05;;;;;;;12.11;52.96;102175.31;4997246;28;20084;-80
2023/04/20 05:59:19;;;;;;;10.82;3.15;;;;;;;12.09;52.61;102174.38;5013382;28;20034;-82
2023/04/20 06:01:50;;;;;;;7.00;3.10;;;;;;;12.10;53.01;102179.66;5010774;28;20048;-81
2023/04/20 06:04:15;;;;;;;7.10;3.25;;;;;;;12.16;53.05;102177.19;5021257;28;20041;-80
2023/04/20 06:06:47;;;;;;;7.97;3.20;;;;;;;11.99;53.40;102172.34;5017634;28;20034;-81
2023/04/20 06:09:29;;;;;;;8.20;3.10;;;;;;;11.86;53.96;102175.44;5015102;28;20061;-80
2023/04/20 06:11:59;;;;;;;8.02;3.40;;;;;;;12.22;53.39;102172.97;5006050;28;20195;-80
2023/04/20 06:14:27;;;;;;;9.05;3.60;;;;;;;12.31;52.66;102173.25;5009535;28;20053;-81
2023/04/20 06:17:01;;;;;;;8.10;3.45;;;;;;;12.08;52.50;102172.59;5005743;28;20049;-81
2023/04/20 06:19:29;;;;;;;8.38;3.47;;;;;;;12.26;52.34;102174.84;5010674;28;20049;-80
2023/04/20 06:21:56;;;;;;;12.30;3.30;;;;;;;12.26;51.86;102174.84;5005968;28;20506;-81
2023/04/20 06:24:26;;;;;;;10.00;3.28;;;;;;;12.08;51.86;102173.47;5011980;28;20136;-80
2023/04/20 06:26:56;;;;;;;7.72;3.60;;;;;;;11.87;52.34;102177.22;5019173;28;20072;-79
2023/04/20 06:29:27;;;;;;;7.85;3.42;;;;;;;11.95;52.92;102173.13;5025417;28;20026;-81
2023/04/20 06:31:56;;;;;;;8.02;3.65;;;;;;;11.93;52.17;102173.06;5017164;28;20038;-80
2023/04/20 06:34:21;;;;;;;7.55;3.40;;;;;;;11.97;51.87;102171.41;4998768;28;20068;-81
2023/04/20 06:36:46;;;;;;;9.13;3.10;;;;;;;11.99;51.08;102170.63;5011110;28;20033;-81
2023/04/20 06:39:12;;;;;;;10.30;3.28;;;;;;;12.32;51.27;102170.66;5024416;28;20064;-78
2023/04/20 06:41:40;;;;;;;6.20;3.20;;;;;;;11.73;51.02;102164.66;5019823;28;20049;-80
2023/04/20 06:44:05;;;;;;;7.03;3.75;;;;;;;11.84;50.83;102175.41;5016670;28;20040;-81
2023/04/20 06:46:31;;;;;;;9.15;3.40;;;;;;;12.28;50.41;102173.16;5013438;28;20054;-82
2023/04/20 06:48:58;;;;;;;8.57;3.50;;;;;;;12.27;50.23;102161.78;5008979;28;20458;-82
2023/04/20 06:51:23;;;;;;;8.05;3.85;;;;;;;12.17;50.49;102151.94;5014917;28;20125;-82
2023/04/20 06:54:01;;;;;;;8.98;3.53;;;;;;;12.11;50.79;102150.06;5010041;28;20038;-81
2023/04/20 06:56:26;;;;;;;9.30;3.50;;;;;;;12.26;50.98;102160.03;5016179;28;20102;-79
2023/04/20 06:58:52;;;;;;;11.82;3.80;;;;;;;12.12;52.80;102159.66;4993921;28;20065;-80
2023/04/20 07:01:17;;;;;;;8.88;3.70;;;;;;;12.02;53.91;102146.28;5000132;28;20037;-80
2023/04/20 07:03:42;;;;;;;9.77;4.57;;;;;;;12.17;55.00;102142.38;5013009;28;20038;-82
2023/04/20 07:06:10;;;;;;;15.75;4.22;;;;;;;11.77;55.82;102145.59;5017300;28;20056;-81
2023/04/20 07:08:35;;;;;;;8.73;4.47;;;;;;;11.79;56.51;102140.41;5013236;28;20037;-80
2023/04/20 07:11:04;;;;;;;9.25;4.20;;;;;;;12.10;54.78;102135.22;5020827;28;20045;-81
2023/04/20 07:13:30;;;;;;;10.57;4.15;;;;;;;11.68;54.38;102136.59;5020307;28;20037;-81
2023/04/20 07:15:55;;;;;;;7.47;4.35;;;;;;;11.74;54.26;102142.91;5001583;28;20042;-78
2023/04/20 07:18:23;;;;;;;7.50;4.20;;;;;;;11.84;53.87;102137.94;5006133;28;20033;-80
2023/04/20 07:20:51;;;;;;;9.13;4.15;;;;;;;11.71;53.69;102142.78;5017141;28;20049;-80
2023/04/20 07:23:17;;;;;;;14.65;4.30;;;;;;;11.94;53.81;102143.47;5009642;28;20030;-82
2023/04/20 07:25:42;;;;;;;10.00;4.13;;;;;;;11.43;53.75;102145.44;4998119;28;20054;-79
2023/04/20 07:28:08;;;;;;;9.77;4.15;;;;;;;11.46;53.65;102144.63;5004236;28;20034;-79
2023/04/20 07:30:36;;;;;;;7.00;4.28;;;;;;;11.56;53.15;102147.56;4997680;22;20042;-75
2023/04/20 07:33:13;;;;;;;7.00;3.90;;;;;;;11.25;53.31;102150.09;4966043;28;20113;-76
2023/04/20 07:35:54;;;;;;;11.48;4.35;;;;;;;11.60;53.45;102151.13;4976123;28;20072;-75
2023/04/20 07:38:22;;;;;;;7.78;4.25;;;;;;;11.75;52.66;102144.69;4981909;28;20026;-77
2023/04/20 07:40:56;;;;;;;8.20;3.83;;;;;;;11.91;51.37;102156.44;4948188;28;20068;-76
2023/04/20 07:43:31;;;;;;;;;;;;;;;11.76;50.38;102143.84;4963568;28;20447;-75
2023/04/20 07:45:56;;;;;;;9.13;3.83;;;;;;;11.52;50.31;102145.72;4961010;28;19980;-76
2023/04/20 07:48:24;;;;;;;9.02;4.10;;;;;;;11.58;50.04;102150.22;4946899;28;20038;-77
2023/04/20 07:50:53;;;;;;;10.30;3.88;;;;;;;11.98;49.99;102144.44;4958482;28;20077;-77
2023/04/20 07:53:18;;;;;;;8.07;3.90;;;;;;;11.46;50.62;102150.75;4963947;28;20117;-76
2023/04/20 07:55:44;;;;;;;6.97;3.97;;;;;;;11.20;52.69;102160.41;4960950;28;20477;-76
2023/04/20 07:58:15;;;;;;;13.30;4.40;;;;;;;10.81;54.36;102162.59;4962802;28;20118;-77
2023/04/20 08:00:40;;;;;;;7.30;3.97;;;;;;;10.63;55.88;102159.38;4958822;28;20108;-76
2023/04/20 08:03:08;;;;;;;7.93;4.05;;;;;;;10.41;58.40;102167.31;4978490;28;20034;-76
2023/04/20 08:05:36;;;;;;;6.65;4.25;;;;;;;10.55;58.15;102173.91;4960365;28;20122;-76
2023/04/20 08:08:04;;;;;;;8.88;4.32;;;;;;;10.26;60.33;102165.06;4964178;28;20494;-77
2023/04/20 08:10:30;;;;;;;9.65;4.28;;;;;;;10.15;59.96;102167.25;4963289;28;20043;-75
2023/04/20 08:12:55;;;;;;;7.82;4.57;;;;;;;10.14;60.37;102167.19;4959911;28;20448;-75
2023/04/20 08:15:23;;;;;;;11.93;4.88;;;;;;;10.44;60.85;102160.47;4964504;28;20428;-75
2023/04/20 08:18:01;;;;;;;10.10;4.15;;;;;;;10.40;61.15;102158.63;4941217;28;20090;-75
2023/04/20 08:20:26;;;;;;;10.20;4.82;;;;;;;10.35;61.76;102151.47;4946498;28;20396;-75
2023/04/20 08:22:52;;;;;;;11.25;5.05;;;;;;;10.11;63.24;102149.75;4978116;28;20038;-76
2023/04/20 08:25:18;;;;;;;9.68;4.95;;;;;;;9.93;63.88;102151.69;4984357;28;20042;-77
2023/04/20 08:27:49;;;;;;;10.43;4.80;;;;;;;10.30;63.41;102151.31;4981571;28;20034;-76
2023/04/20 08:30:15;;;;;;;8.45;4.78;;;;;;;10.12;64.83;102151.50;4995231;28;20026;-78
2023/04/20 08:32:40;;;;;;;11.70;4.38;;;;;;;9.97;65.01;102147.47;4990477;28;20081;-76
2023/04/20 08:35:07;;;;;;;8.38;4.20;;;;;;;10.33;64.14;102151.41;4988737;28;20171;-77
2023/04/20 08:37:32;;;;;;;9.40;4.38;;;;;;;9.98;65.16;102144.03;4964849;28;20056;-76
2023/04/20 08:39:58;;;;;;;7.85;4.50;;;;;;;10.18;65.28;102153.50;4963874;28;20080;-76
2023/04/20 08:42:23;;;;;;;8.98;4.90;;;;;;;10.23;65.97;102151.94;4963195;28;20038;-78
2023/04/20 08:44:52;;;;;;;7.38;4.45;;;;;;;10.27;65.45;102152.91;4959689;28;20034;-76
2023/04/20 08:47:20;;;;;;;8.90;4.65;;;;;;;10.10;66.09;102158.41;4977488;28;20396;-78
2023/04/20 08:49:52;;;;;;;10.82;4.60;;;;;;;10.06;66.61;102153.03;4977128;28;20050;-76
2023/04/20 08:52:17;;;;;;;8.65;4.75;;;;;;;10.16;66.41;102139.47;4979748;28;20030;-77
2023/04/20 08:54:43;;;;;;;9.07;4.60;;;;;;;10.38;66.00;102135.91;4965890;28;20501;-77
2023/04/20 08:57:08;;;;;;;9.43;4.70;;;;;;;10.38;66.25;102134.19;4981451;28;20487;-77
2023/04/20 08:59:37;;;;;;;9.20;5.18;;;;;;;10.30;66.71;102130.47;4977565;28;20488;-75
2023/04/20 09:02:17;;;;;;;8.35;4.60;;;;;;;10.38;66.49;102118.56;4963673;28;20042;-77
2023/04/20 09:05:03;;;;;;;9.07;5.20;;;;;;;10.36;66.63;102108.94;4976059;28;20042;-76
2023/04/20 09:07:29;;;;;;;8.23;4.88;;;;;;;10.66;66.57;102112.56;4962267;28;20043;-76
2023/04/20 09:09:59;;;;;;;9.18;5.40;;;;;;;10.52;67.00;102106.00;4975930;28;20125;-76
2023/04/20 09:12:25;;;;;;;10.32;5.00;;;;;;;10.16;67.66;102121.25;4961733;28;20049;-76
2023/04/20 09:14:52;;;;;;;9.10;4.68;;;;;;;10.68;67.38;102110.88;4976216;28;21542;-77
2023/04/20 09:17:30;;;;;;;10.63;4.72;;;;;;;10.65;66.30;102116.00;4981089;28;20065;-77
2023/04/20 09:19:56;;;;;;;7.72;4.43;;;;;;;10.63;66.47;102120.25;4977386;28;20093;-77
2023/04/20 09:22:37;;;;;;;8.75;4.78;;;;;;;10.56;67.07;102116.56;4980618;28;20038;-78
2023/04/20 09:25:16;;;;;;;7.15;4.60;;;;;;;10.81;66.96;102112.16;4960255;28;20459;-75
2023/04/20 09:27:41;;;;;;;8.95;4.72;;;;;;;10.47;66.29;102118.00;4958108;28;20042;-77
2023/04/20 09:30:08;;;;;;;6.63;4.05;;;;;;;10.45;66.21;102109.22;4962969;28;20510;-74
2023/04/20 09:32:34;;;;;;;8.20;4.50;;;;;;;10.79;65.79;102101.69;4959277;28;20060;-76
2023/04/20 09:35:07;;;;;;;7.35;4.40;;;;;;;10.79;65.71;102104.31;4980973;28;20038;-78
2023/04/20 09:37:32;;;;;;;8.15;4.70;;;;;;;10.82;65.91;102087.84;4956772;28;20042;-75
2023/04/20 09:40:07;;;;;;;7.95;4.50;;;;;;;10.56;64.82;102098.31;4980838;28;20026;-78
2023/04/20 09:42:37;;;;;;;8.07;4.30;;;;;;;10.48;64.31;102094.59;4975728;28;20041;-75
2023/04/20 09:45:06;;;;;;;8.63;4.60;;;;;;;10.77;63.93;102092.03;4981602;28;20026;-76
2023/04/20 09:47:40;;;;;;;8.00;5.00;;;;;;;11.04;63.79;102089.41;4977606;28;20030;-76
2023/04/20 09:50:19;;;;;;;6.30;4.40;;;;;;;10.75;63.56;102083.25;4960537;28;20034;-77
2023/04/20 09:52:49;;;;;;;7.57;4.97;;;;;;;11.09;63.33;102078.28;4975254;28;20038;-78
2023/04/20 09:55:18;;;;;;;8.57;4.60;;;;;;;10.82;62.83;102074.78;4979481;28;20519;-77
2023/04/20 09:57:44;;;;;;;7.50;4.57;;;;;;;10.65;62.69;102083.81;4976240;28;20038;-77
2023/04/20 10:00:11;;;;;;;8.32;4.65;;;;;;;11.02;62.21;102080.63;4978771;28;20027;-76
2023/04/20 10:02:37;;;;;;;7.10;4.57;;;;;;;10.85;62.77;102073.19;4975777;28;20053;-75
2023/04/20 10:05:06;;;;;;;8.77;4.57;;;;;;;11.79;61.66;102055.09;4980483;28;20023;-76
2023/04/20 10:07:33;;;;;;;6.63;4.55;;;;;;;12.20;60.32;102063.13;4958935;28;20457;-76
2023/04/20 10:10:12;;;;;;;7.57;4.78;;;;;;;11.84;60.29;102073.50;4961469;28;20113;-75
2023/04/20 10:12:49;;;;;;;6.95;4.55;;;;;;;12.11;58.50;102075.97;4974864;28;20130;-75
2023/04/20 10:15:18;;;;;;;8.35;5.22;;;;;;;12.28;60.06;102064.22;4962140;28;20515;-77
2023/04/20 10:17:43;;;;;;;9.00;4.97;;;;;;;12.37;58.97;102071.41;4975406;28;20527;-75
2023/04/20 10:20:26;;;;;;;8.25;5.03;;;;;;;12.64;57.88;102068.56;4962243;28;20043;-76
2023/04/20 10:23:10;;;;;;;7.45;5.15;;;;;;;12.61;58.10;102072.03;4975730;28;20409;-76
2023/04/20 10:25:35;;;;;;;9.07;5.32;;;;;;;12.16;57.99;102063.91;4975332;28;20034;-76
2023/04/20 10:28:09;;;;;;;11.52;5.60;;;;;;;12.24;56.92;102064.09;4980677;28;20145;-75
2023/04/20 10:30:36;;;;;;;8.13;5.50;;;;;;;12.74;55.53;102060.13;4956185;28;20101;-77
2023/04/20 10:33:10;;;;;;;8.65;5.40;;;;;;;12.52;57.03;102056.97;4962491;28;20041;-76
2023/04/20 10:35:49;;;;;;;10.80;5.50;;;;;;;12.80;56.94;102045.44;4957984;28;20041;-76
2023/04/20 10:38:26;;;;;;;13.13;5.70;;;;;;;11.85;57.42;102051.75;4979595;28;20134;-77
2023/04/20 10:40:51;;;;;;;9.75;6.30;;;;;;;12.48;57.77;102057.75;4975899;28;20137;-77
2023/04/20 10:43:20;;;;;;;10.77;6.00;;;;;;;12.60;57.63;102055.44;4980439;28;20117;-78
2023/04/20 10:45:46;;;;;;;12.45;5.72;;;;;;;12.69;55.31;102048.63;4974668;28;20431;-77
2023/04/20 10:48:26;;;;;;;12.38;5.75;;;;;;;12.48;56.34;102051.63;4979203;28;20022;-77
2023/04/20 10:50:52;;;;;;;9.25;5.78;;;;;;;12.73;55.35;102047.88;4974344;28;23394;-77
2023/04/20 10:53:22;;;;;;;8.00;5.57;;;;;;;12.63;55.40;102041.53;4978764;28;20109;-77
2023/04/20 10:55:58;;;;;;;9.73;5.95;;;;;;;12.54;56.41;102043.94;4958088;28;20431;-77
2023/04/20 10:58:26;;;;;;;8.10;5.43;;;;;;;13.04;54.55;102045.09;4980387;28;20038;-77
2023/04/20 11:01:10;;;;;;;10.40;6.00;;;;;;;12.89;55.31;102043.00;4948459;28;20053;-77
2023/04/20 11:03:36;;;;;;;9.07;5.30;;;;;;;12.63;53.97;102033.66;4957670;28;20037;-76
2023/04/20 11:06:02;;;;;;;9.07;5.68;;;;;;;13.18;54.51;102042.78;4969492;28;20042;-78
2023/04/20 11:08:41;;;;;;;8.18;5.63;;;;;;;13.05;53.75;102025.94;4979898;28;20037;-75
2023/04/20 11:11:20;;;;;;;8.85;5.63;;;;;;;13.28;56.10;102023.81;4961145;28;20439;-78
2023/04/20 11:13:47;;;;;;;10.80;6.10;;;;;;;13.24;53.46;102027.22;4960235;28;20035;-77
2023/04/20 11:16:14;;;;;;;11.57;6.30;;;;;;;13.73;52.57;102022.09;4983421;28;20164;-77
2023/04/20 11:19:09;;;;;;;12.95;6.15;;;;;;;13.47;52.83;102005.00;4961491;28;20042;-77
2023/04/20 11:21:39;;;;;;;9.48;6.40;;;;;;;14.12;52.20;102006.19;4956902;28;20117;-77
2023/04/20 11:24:17;;;;;;;9.20;6.15;;;;;;;14.31;50.77;102004.75;4983135;28;20145;-77
2023/04/20 11:26:43;;;;;;;9.70;6.28;;;;;;;13.60;52.22;101999.13;4979272;28;20097;-78
2023/04/20 11:29:08;;;;;;;11.55;6.55;;;;;;;14.13;51.01;101996.59;4983232;28;20038;-75